createdAt,value
2023-04-28T00:02:35.419Z,14.31
2023-04-28T00:06:37.220Z,14.34
2023-04-28T00:10:38.882Z,14.38
2023-04-28T00:14:40.861Z,14.34
2023-04-28T00:18:42.570Z,14.29
2023-04-28T00:22:44.218Z,14.29
2023-04-28T00:26:45.905Z,14.16
2023-04-28T00:30:47.610Z,14.02
2023-04-28T00:34:49.245Z,13.98
2023-04-28T00:38:50.888Z,14.02
2023-04-28T00:42:52.505Z,14.04
2023-04-28T00:46:54.286Z,14.05
2023-04-28T00:50:56.032Z,14.06
2023-04-28T00:54:57.641Z,14.05
2023-04-28T00:58:59.339Z,14.09
2023-04-28T01:03:01.299Z,14.08
2023-04-28T01:07:06.958Z,14.05
2023-04-28T01:11:10.500Z,14.08
2023-04-28T01:15:30.998Z,14.09
2023-04-28T01:19:32.804Z,14.01
2023-04-28T01:23:34.549Z,13.99
2023-04-28T01:27:36.153Z,13.88
2023-04-28T01:31:37.863Z,13.71
2023-04-28T01:35:39.566Z,13.79
2023-04-28T01:39:41.218Z,13.81
2023-04-28T01:43:43.825Z,13.84
2023-04-28T01:47:45.397Z,13.86
2023-04-28T01:51:47.851Z,13.86
2023-04-28T01:55:49.422Z,13.88
2023-04-28T01:59:53.504Z,13.83
2023-04-28T02:03:55.823Z,13.69
2023-04-28T02:07:58.499Z,13.69
2023-04-28T02:12:00.289Z,13.65
2023-04-28T02:16:02.589Z,13.66
2023-04-28T02:20:05.034Z,13.71
2023-04-28T02:24:08.141Z,13.72
2023-04-28T02:28:09.688Z,13.73
2023-04-28T02:32:11.738Z,13.79
2023-04-28T02:36:13.324Z,13.71
2023-04-28T02:40:15.172Z,13.69
2023-04-28T02:44:16.887Z,13.65
2023-04-28T02:48:18.931Z,13.63
2023-04-28T02:52:20.475Z,13.66
2023-04-28T02:56:22.033Z,13.69
2023-04-28T03:00:23.744Z,13.72
2023-04-28T03:04:26.435Z,13.75
2023-04-28T03:08:28.181Z,13.71
2023-04-28T03:12:30.602Z,13.71
2023-04-28T03:16:32.244Z,13.65
2023-04-28T03:20:33.950Z,13.65
2023-04-28T03:24:35.769Z,13.63
2023-04-28T03:28:37.403Z,13.57
2023-04-28T03:32:39.018Z,13.51
2023-04-28T03:36:42.005Z,13.43
2023-04-28T03:40:51.832Z,13.46
2023-04-28T03:45:12.478Z,13.41
2023-04-28T03:49:14.320Z,13.43
2023-04-28T03:53:17.277Z,13.41
2023-04-28T03:57:18.964Z,13.38
2023-04-28T04:01:20.654Z,13.38
2023-04-28T04:05:23.472Z,13.35
2023-04-28T04:09:25.152Z,13.36
2023-04-28T04:13:26.678Z,13.38
2023-04-28T04:17:28.571Z,13.38
2023-04-28T04:21:31.764Z,13.44
2023-04-28T04:25:33.500Z,13.38
2023-04-28T04:29:36.526Z,13.41
2023-04-28T04:33:43.617Z,13.39
2023-04-28T04:37:46.148Z,13.36
2023-04-28T04:41:47.794Z,13.32
2023-04-28T04:46:22.738Z,13.29
2023-04-28T04:50:24.554Z,13.35
2023-04-28T04:54:26.215Z,13.35
2023-04-28T04:58:28.115Z,13.29
2023-04-28T05:02:29.924Z,13.32
2023-04-28T05:06:32.162Z,13.32
2023-04-28T05:10:34.124Z,13.28
2023-04-28T05:14:37.452Z,13.27
2023-04-28T05:18:39.090Z,13.22
2023-04-28T05:22:40.726Z,13.27
2023-04-28T05:26:42.677Z,13.29
2023-04-28T05:30:45.547Z,13.29
2023-04-28T05:34:48.090Z,13.31
2023-04-28T05:38:49.813Z,13.31
2023-04-28T05:42:51.493Z,13.28
2023-04-28T05:46:53.445Z,13.29
2023-04-28T05:51:00.047Z,13.27
2023-04-28T05:55:01.950Z,13.28
2023-04-28T05:59:04.682Z,13.25
2023-04-28T06:03:08.979Z,13.31
2023-04-28T06:07:11.107Z,13.38
2023-04-28T06:11:13.839Z,13.35
2023-04-28T06:15:16.463Z,13.36
2023-04-28T06:19:21.212Z,13.35
2023-04-28T06:23:22.823Z,13.35
2023-04-28T06:27:25.915Z,13.35
2023-04-28T06:31:27.526Z,13.32
2023-04-28T06:35:29.314Z,13.32
2023-04-28T06:39:30.882Z,13.28
2023-04-28T06:43:33.469Z,13.25
2023-04-28T06:47:43.207Z,13.25
2023-04-28T06:51:45.508Z,13.29
2023-04-28T06:55:47.107Z,13.25
2023-04-28T06:59:48.810Z,13.28
2023-04-28T07:03:50.858Z,13.29
2023-04-28T07:07:52.676Z,13.28
2023-04-28T07:11:54.267Z,13.29
2023-04-28T07:15:56.141Z,13.39
2023-04-28T07:19:57.727Z,13.48
2023-04-28T07:23:59.280Z,13.62
2023-04-28T07:28:04.284Z,13.84
2023-04-28T07:32:10.982Z,13.91
2023-04-28T07:36:14.714Z,14.05
2023-04-28T07:40:21.508Z,14.09
2023-04-28T07:44:23.284Z,14.06
2023-04-28T07:48:24.906Z,13.96
2023-04-28T07:52:28.657Z,13.99
2023-04-28T07:56:30.587Z,13.94
2023-04-28T08:00:32.530Z,13.93
2023-04-28T08:04:35.072Z,13.93
2023-04-28T08:08:37.095Z,13.98
2023-04-28T08:12:40.751Z,14.02
2023-04-28T08:16:42.632Z,14.08
2023-04-28T08:20:44.288Z,14.13
2023-04-28T08:24:46.213Z,14.20
2023-04-28T08:28:47.828Z,14.30
2023-04-28T08:32:49.369Z,14.36
2023-04-28T08:36:51.895Z,14.39
2023-04-28T08:40:53.460Z,14.41
2023-04-28T08:44:59.554Z,14.45
2023-04-28T08:49:02.229Z,14.57
2023-04-28T08:53:04.392Z,14.83
2023-04-28T08:57:09.176Z,15.03
2023-04-28T09:01:10.801Z,15.11
2023-04-28T09:05:14.077Z,15.23
2023-04-28T09:09:27.390Z,15.34
2023-04-28T09:13:29.000Z,15.37
2023-04-28T09:17:30.569Z,15.41
2023-04-28T09:21:32.445Z,15.48
2023-04-28T09:25:34.133Z,15.60
2023-04-28T09:29:35.698Z,15.73
2023-04-28T09:33:37.284Z,15.78
2023-04-28T09:37:38.860Z,15.98
2023-04-28T09:41:41.838Z,16.01
2023-04-28T09:45:45.856Z,16.16
2023-04-28T09:49:57.795Z,16.44
2023-04-28T09:54:00.533Z,16.52
2023-04-28T09:58:06.858Z,16.41
2023-04-28T10:02:28.857Z,16.33
2023-04-28T10:06:30.806Z,16.25
2023-04-28T10:10:33.350Z,16.14
2023-04-28T10:14:36.785Z,16.06
2023-04-28T10:18:39.086Z,16.03
2023-04-28T10:22:51.822Z,16.01
2023-04-28T10:27:05.725Z,15.96
2023-04-28T10:31:17.669Z,15.91
2023-04-28T10:35:25.476Z,15.93
2023-04-28T10:39:27.069Z,15.98
2023-04-28T10:43:40.043Z,16.03
2023-04-28T10:48:04.260Z,16.13
2023-04-28T10:52:41.006Z,16.27
2023-04-28T10:57:15.266Z,16.37
2023-04-28T11:01:24.927Z,16.62
2023-04-28T11:05:28.729Z,16.87
2023-04-28T11:09:33.273Z,16.98
2023-04-28T11:13:35.009Z,17.05
2023-04-28T11:17:47.778Z,16.96
2023-04-28T11:21:50.331Z,16.88
2023-04-28T11:25:59.123Z,16.82
2023-04-28T11:30:01.596Z,16.77
2023-04-28T11:34:08.244Z,16.73
2023-04-28T11:38:09.764Z,16.70
2023-04-28T11:42:11.515Z,16.63
2023-04-28T11:46:25.986Z,16.59
2023-04-28T11:50:37.391Z,16.66
2023-04-28T11:54:39.389Z,16.69
2023-04-28T11:58:40.910Z,16.67
2023-04-28T12:02:42.908Z,16.73
2023-04-28T12:06:44.764Z,16.84
2023-04-28T12:11:18.341Z,16.92
2023-04-28T12:15:22.782Z,17.30
2023-04-28T12:19:24.726Z,17.58
2023-04-28T12:23:33.748Z,17.60
2023-04-28T12:27:40.330Z,17.51
2023-04-28T12:31:50.262Z,17.46
2023-04-28T12:35:54.794Z,17.49
2023-04-28T12:39:56.357Z,17.58
2023-04-28T12:43:58.111Z,17.68
2023-04-28T12:47:59.753Z,17.70
2023-04-28T12:52:01.928Z,17.83
2023-04-28T12:56:03.600Z,18.14
2023-04-28T13:00:06.170Z,18.82
2023-04-28T13:04:09.445Z,19.28
2023-04-28T13:08:12.406Z,19.46
2023-04-28T13:12:13.989Z,19.39
2023-04-28T13:16:15.676Z,19.15
2023-04-28T13:20:17.304Z,18.91
2023-04-28T13:24:18.891Z,18.76
2023-04-28T13:58:25.901Z,20.73
2023-04-28T14:02:27.665Z,20.68
2023-04-28T14:06:29.478Z,20.42
2023-04-28T14:10:31.217Z,20.22
2023-04-28T14:14:32.843Z,19.97
2023-04-28T14:18:34.504Z,19.75
2023-04-28T14:22:36.234Z,19.58
2023-04-28T14:26:37.950Z,19.45
2023-04-28T14:30:39.513Z,19.32
2023-04-28T14:34:41.143Z,19.15
2023-04-28T14:38:42.767Z,18.96
2023-04-28T14:42:45.146Z,18.83
2023-04-28T14:46:47.016Z,18.74
2023-04-28T14:50:48.951Z,18.66
2023-04-28T14:54:50.875Z,18.51
2023-04-28T14:58:52.640Z,18.31
2023-04-28T15:02:54.304Z,18.16
2023-04-28T15:06:56.807Z,17.87
2023-04-28T15:10:58.380Z,17.51
2023-04-28T15:15:00.250Z,17.22
2023-04-28T15:19:01.887Z,16.98
2023-04-28T15:23:03.554Z,16.91
2023-04-28T15:27:05.179Z,16.88
2023-04-28T15:31:07.096Z,16.90
2023-04-28T15:35:09.121Z,16.98
2023-04-28T15:39:10.754Z,17.07
2023-04-28T15:43:13.304Z,17.12
2023-04-28T15:47:14.845Z,17.17
2023-04-28T15:51:16.452Z,17.28
2023-04-28T15:55:20.986Z,17.45
2023-04-28T15:59:22.761Z,17.57
2023-04-28T16:03:24.514Z,17.65
2023-04-28T16:07:26.275Z,17.76
2023-04-28T16:11:29.693Z,17.84
2023-04-28T16:15:31.456Z,18.19
2023-04-28T16:19:33.581Z,18.65
2023-04-28T16:23:35.359Z,19.05
2023-04-28T16:27:38.508Z,19.30
2023-04-28T16:31:40.128Z,19.39
2023-04-28T16:35:41.760Z,19.40
2023-04-28T16:39:43.407Z,19.46
2023-04-28T16:43:44.911Z,19.39
2023-04-28T16:47:46.739Z,19.31
2023-04-28T16:52:06.465Z,19.12
2023-04-28T16:56:10.438Z,19.12
2023-04-28T17:00:13.771Z,18.86
2023-04-28T17:04:15.712Z,18.66
2023-04-28T17:08:17.356Z,18.53
2023-04-28T17:12:20.770Z,18.53
2023-04-28T17:16:22.554Z,18.54
2023-04-28T17:20:24.366Z,18.59
2023-04-28T17:24:26.042Z,18.56
2023-04-28T17:28:27.996Z,18.51
2023-04-28T17:32:31.066Z,18.47
2023-04-28T17:36:33.644Z,18.36
2023-04-28T17:40:35.317Z,18.23
2023-04-28T17:44:36.894Z,18.17
2023-04-28T17:48:38.523Z,18.09
2023-04-28T17:52:43.433Z,17.98
2023-04-28T17:56:45.572Z,17.91
2023-04-28T18:00:47.094Z,17.86
2023-04-28T18:04:49.001Z,17.76
2023-04-28T18:08:50.846Z,17.70
2023-04-28T18:12:53.655Z,17.60
2023-04-28T18:16:55.469Z,17.54
2023-04-28T18:20:58.724Z,17.46
2023-04-28T18:25:00.453Z,17.40
2023-04-28T18:29:02.080Z,17.32
2023-04-28T18:33:07.139Z,17.25
2023-04-28T18:37:09.396Z,17.20
2023-04-28T18:41:16.464Z,17.12
2023-04-28T18:45:19.011Z,17.07
2023-04-28T18:49:20.652Z,17.03
2023-04-28T18:53:22.214Z,16.99
2023-04-28T18:57:23.995Z,16.95
2023-04-28T19:01:27.213Z,16.87
2023-04-28T19:05:29.707Z,16.82
2023-04-28T19:09:31.387Z,16.78
2023-04-28T19:13:34.327Z,16.72
2023-04-28T19:17:35.910Z,16.69
2023-04-28T19:21:42.321Z,16.65
2023-04-28T19:25:44.194Z,16.60
2023-04-28T19:29:45.786Z,16.54
2023-04-28T19:33:47.316Z,16.51
2023-04-28T19:37:49.851Z,16.48
2023-04-28T19:41:52.290Z,16.42
2023-04-28T19:45:53.994Z,16.34
2023-04-28T19:49:56.406Z,16.29
2023-04-28T19:53:58.101Z,16.25
2023-04-28T19:58:01.086Z,16.18
2023-04-28T20:02:02.831Z,16.14
2023-04-28T20:06:04.492Z,16.10
2023-04-28T20:10:06.616Z,16.07
2023-04-28T20:14:08.657Z,16.03
2023-04-28T20:18:10.508Z,15.98
2023-04-28T20:22:12.055Z,15.95
2023-04-28T20:26:15.183Z,15.93
2023-04-28T20:30:16.765Z,15.92
2023-04-28T20:34:20.789Z,15.91
2023-04-28T20:38:22.565Z,15.89
2023-04-28T20:42:25.026Z,15.85
2023-04-28T20:46:27.137Z,15.81
2023-04-28T20:50:33.189Z,15.80
2023-04-28T20:54:36.131Z,15.76
2023-04-28T20:58:38.196Z,15.74
2023-04-28T21:02:40.007Z,15.74
2023-04-28T21:06:41.715Z,15.73
2023-04-28T21:10:43.478Z,15.70
2023-04-28T21:14:45.115Z,15.68
2023-04-28T21:18:47.301Z,15.64
2023-04-28T21:22:49.565Z,15.60
2023-04-28T21:26:51.128Z,15.58
2023-04-28T21:30:53.029Z,15.53
2023-04-28T21:34:54.634Z,15.48
2023-04-28T21:38:56.820Z,15.44
2023-04-28T21:42:58.349Z,15.41
2023-04-28T21:47:00.049Z,15.43
2023-04-28T21:51:01.685Z,15.30
2023-04-28T21:55:03.330Z,15.27
2023-04-28T21:59:04.949Z,15.23
2023-04-28T22:03:06.761Z,15.22
2023-04-28T22:07:08.555Z,15.19
2023-04-28T22:11:10.214Z,15.19
2023-04-28T22:15:11.850Z,15.18
2023-04-28T22:19:13.459Z,15.15
2023-04-28T22:23:15.132Z,15.15
2023-04-28T22:27:16.719Z,15.15
2023-04-28T22:31:18.561Z,15.12
2023-04-28T22:35:20.243Z,15.12
2023-04-28T22:39:24.795Z,15.09
2023-04-28T22:43:27.641Z,15.07
2023-04-28T22:47:29.333Z,15.05
2023-04-28T22:51:31.535Z,15.03
2023-04-28T22:55:33.097Z,14.98
2023-04-28T22:59:34.614Z,14.95
2023-04-28T23:03:38.361Z,14.93
2023-04-28T23:07:40.402Z,14.86
2023-04-28T23:11:41.988Z,14.85
2023-04-28T23:15:43.656Z,14.80
2023-04-28T23:19:45.403Z,14.75
2023-04-28T23:23:47.020Z,14.71
2023-04-28T23:27:48.578Z,14.67
2023-04-28T23:31:54.489Z,14.67
2023-04-28T23:35:56.085Z,14.61
2023-04-28T23:39:57.675Z,14.59
2023-04-28T23:43:59.166Z,14.56
2023-04-28T23:48:00.937Z,14.53
2023-04-28T23:52:02.685Z,14.52
2023-04-28T23:56:04.428Z,14.48
